createdAt,value
2022-12-25T00:02:17.731Z,6.84
2022-12-25T00:04:45.626Z,6.78
2022-12-25T00:07:13.378Z,6.74
2022-12-25T00:09:41.142Z,6.72
2022-12-25T00:12:10.351Z,6.73
2022-12-25T00:14:38.105Z,6.72
2022-12-25T00:17:05.848Z,6.71
2022-12-25T00:19:33.770Z,6.65
2022-12-25T00:22:01.467Z,6.63
2022-12-25T00:24:29.230Z,6.64
2022-12-25T00:26:56.981Z,6.60
2022-12-25T00:29:26.543Z,6.57
2022-12-25T00:31:54.378Z,6.56
2022-12-25T00:34:22.280Z,6.55
2022-12-25T00:36:51.279Z,6.51
2022-12-25T00:39:19.195Z,6.47
2022-12-25T00:42:04.491Z,6.46
2022-12-25T00:44:33.678Z,6.43
2022-12-25T00:47:11.607Z,6.41
2022-12-25T00:49:39.433Z,6.42
2022-12-25T00:52:07.540Z,6.44
2022-12-25T00:54:35.324Z,6.45
2022-12-25T00:57:03.211Z,6.45
2022-12-25T00:59:33.815Z,6.43
2022-12-25T01:02:22.848Z,6.38
2022-12-25T01:04:51.447Z,6.31
2022-12-25T01:07:19.945Z,6.27
2022-12-25T01:10:06.227Z,6.25
2022-12-25T01:12:36.676Z,6.22
2022-12-25T01:15:06.852Z,6.22
2022-12-25T01:17:35.098Z,6.17
2022-12-25T01:20:03.208Z,6.08
2022-12-25T01:22:31.025Z,6.07
2022-12-25T01:24:58.790Z,6.06
2022-12-25T01:27:26.635Z,6.05
2022-12-25T01:29:54.942Z,6.05
2022-12-25T01:32:26.179Z,6.04
2022-12-25T01:34:56.373Z,6.04
2022-12-25T01:37:24.976Z,6.00
2022-12-25T01:39:52.800Z,6.02
2022-12-25T01:42:23.601Z,6.06
2022-12-25T01:45:31.668Z,6.04
2022-12-25T01:48:03.168Z,6.03
2022-12-25T01:50:31.073Z,6.03
2022-12-25T01:52:59.454Z,6.05
2022-12-25T01:55:28.589Z,6.08
2022-12-25T01:57:56.467Z,6.07
2022-12-25T02:00:24.350Z,6.06
2022-12-25T02:02:52.299Z,6.11
2022-12-25T02:05:26.126Z,6.14
2022-12-25T02:07:54.751Z,6.16
2022-12-25T02:10:22.873Z,6.18
2022-12-25T02:12:51.125Z,6.20
2022-12-25T02:15:21.947Z,6.22
2022-12-25T02:17:59.568Z,6.25
2022-12-25T02:20:52.512Z,6.27
2022-12-25T02:23:50.443Z,6.28
2022-12-25T02:26:28.727Z,6.28
2022-12-25T02:29:03.915Z,6.32
2022-12-25T02:31:39.795Z,6.33
2022-12-25T02:34:14.252Z,6.36
2022-12-25T02:36:46.851Z,6.38
2022-12-25T02:39:40.995Z,6.39
2022-12-25T02:42:15.115Z,6.40
2022-12-25T02:45:05.727Z,6.39
2022-12-25T02:47:52.717Z,6.38
2022-12-25T02:50:39.888Z,6.38
2022-12-25T02:53:27.253Z,6.41
2022-12-25T02:56:14.680Z,6.40
2022-12-25T02:59:03.404Z,6.41
2022-12-25T03:01:52.774Z,6.41
2022-12-25T03:04:42.664Z,6.43
2022-12-25T03:07:15.575Z,6.45
2022-12-25T03:10:05.136Z,6.46
2022-12-25T03:12:41.673Z,6.46
2022-12-25T03:15:29.668Z,6.46
2022-12-25T03:18:02.716Z,6.43
2022-12-25T03:20:48.895Z,6.41
2022-12-25T03:23:39.010Z,6.38
2022-12-25T03:26:25.112Z,6.32
2022-12-25T03:28:52.826Z,6.32
2022-12-25T03:31:26.862Z,6.33
2022-12-25T03:34:45.193Z,6.33
2022-12-25T03:37:48.051Z,6.33
2022-12-25T03:40:42.375Z,6.25
2022-12-25T03:43:33.588Z,6.26
2022-12-25T03:46:25.941Z,6.27
2022-12-25T03:49:18.976Z,6.27
2022-12-25T03:52:07.653Z,6.26
2022-12-25T03:54:58.274Z,6.25
2022-12-25T03:57:43.636Z,6.27
2022-12-25T04:00:29.670Z,6.30
2022-12-25T04:03:14.896Z,6.31
2022-12-25T04:06:00.045Z,6.32
2022-12-25T04:08:46.825Z,6.33
2022-12-25T04:11:32.155Z,6.33
2022-12-25T04:14:17.335Z,6.36
2022-12-25T04:17:02.400Z,6.36
2022-12-25T04:19:47.537Z,6.39
2022-12-25T04:22:32.822Z,6.42
2022-12-25T04:25:19.086Z,6.38
2022-12-25T04:28:04.460Z,6.37
2022-12-25T04:30:49.600Z,6.37
2022-12-25T04:33:34.797Z,6.41
2022-12-25T04:36:11.584Z,6.42
2022-12-25T04:38:40.429Z,6.38
2022-12-25T04:41:12.544Z,6.43
2022-12-25T04:43:40.480Z,6.40
2022-12-25T04:46:08.378Z,6.39
2022-12-25T04:48:37.111Z,6.42
2022-12-25T04:51:12.733Z,6.46
2022-12-25T04:53:40.461Z,6.48
2022-12-25T04:56:08.322Z,6.48
2022-12-25T04:58:37.564Z,6.51
2022-12-25T05:01:06.257Z,6.51
2022-12-25T05:03:34.950Z,6.52
2022-12-25T05:06:03.355Z,6.51
2022-12-25T05:08:32.147Z,6.51
2022-12-25T05:10:59.912Z,6.49
2022-12-25T05:13:27.775Z,6.49
2022-12-25T05:15:56.951Z,6.50
2022-12-25T05:18:24.989Z,6.50
2022-12-25T05:20:54.407Z,6.51
2022-12-25T05:23:22.935Z,6.49
2022-12-25T05:25:50.685Z,6.50
2022-12-25T05:28:18.497Z,6.52
2022-12-25T05:30:46.225Z,6.52
2022-12-25T05:33:15.829Z,6.51
2022-12-25T05:35:43.582Z,6.51
2022-12-25T05:38:11.307Z,6.52
2022-12-25T05:40:40.949Z,6.50
2022-12-25T05:43:09.189Z,6.47
2022-12-25T05:45:37.079Z,6.45
2022-12-25T05:48:05.044Z,6.45
2022-12-25T05:50:34.203Z,6.45
2022-12-25T05:53:12.578Z,6.42
2022-12-25T05:55:43.491Z,6.42
2022-12-25T05:58:12.768Z,6.43
2022-12-25T06:00:41.827Z,6.41
2022-12-25T06:03:09.634Z,6.43
2022-12-25T06:05:40.193Z,6.46
2022-12-25T06:08:07.942Z,6.45
2022-12-25T06:10:35.616Z,6.35
2022-12-25T06:13:03.727Z,6.32
2022-12-25T06:15:32.776Z,6.33
2022-12-25T06:18:01.442Z,6.33
2022-12-25T06:20:29.365Z,6.32
2022-12-25T06:22:58.506Z,6.34
2022-12-25T06:25:26.247Z,6.34
2022-12-25T06:27:53.988Z,6.34
2022-12-25T06:30:21.804Z,6.30
2022-12-25T06:32:49.680Z,6.31
2022-12-25T06:35:17.561Z,6.31
2022-12-25T06:37:45.346Z,6.31
2022-12-25T06:40:15.214Z,6.30
2022-12-25T06:42:42.968Z,6.28
2022-12-25T06:45:11.563Z,6.25
2022-12-25T06:47:39.684Z,6.18
2022-12-25T06:50:08.523Z,6.14
2022-12-25T06:52:38.597Z,6.14
2022-12-25T06:55:08.026Z,6.17
2022-12-25T06:57:37.178Z,6.19
2022-12-25T07:00:06.701Z,6.19
2022-12-25T07:02:38.417Z,6.17
2022-12-25T07:05:07.120Z,6.17
2022-12-25T07:07:34.895Z,6.19
2022-12-25T07:10:02.632Z,6.22
2022-12-25T07:12:30.376Z,6.23
2022-12-25T07:14:59.503Z,6.24
2022-12-25T07:17:27.265Z,6.24
2022-12-25T07:19:56.554Z,6.28
2022-12-25T07:22:24.267Z,6.29
2022-12-25T07:24:52.012Z,6.31
2022-12-25T07:27:19.772Z,6.37
2022-12-25T07:29:47.577Z,6.41
2022-12-25T07:32:16.754Z,6.44
2022-12-25T07:34:44.540Z,6.44
2022-12-25T07:37:12.624Z,6.46
2022-12-25T07:39:40.698Z,6.47
2022-12-25T07:42:08.657Z,6.48
2022-12-25T07:44:36.376Z,6.52
2022-12-25T07:47:04.126Z,6.55
2022-12-25T07:49:33.213Z,6.60
2022-12-25T07:52:00.977Z,6.60
2022-12-25T07:54:28.701Z,6.64
2022-12-25T07:56:56.463Z,6.68
2022-12-25T07:59:24.361Z,6.71
2022-12-25T08:01:52.333Z,6.77
2022-12-25T08:04:20.393Z,6.81
2022-12-25T08:06:49.598Z,6.84
2022-12-25T08:09:17.366Z,6.85
2022-12-25T08:11:47.708Z,6.89
2022-12-25T08:14:16.329Z,6.90
2022-12-25T08:16:44.626Z,6.94
2022-12-25T08:19:12.590Z,6.93
2022-12-25T08:21:40.327Z,6.92
2022-12-25T08:24:10.694Z,6.96
2022-12-25T08:26:38.561Z,6.98
2022-12-25T08:29:33.483Z,7.00
2022-12-25T08:32:01.293Z,7.01
2022-12-25T08:34:29.065Z,7.06
2022-12-25T08:36:56.772Z,7.10
2022-12-25T08:39:25.935Z,7.15
2022-12-25T08:41:53.651Z,7.23
2022-12-25T08:44:22.439Z,7.27
2022-12-25T08:46:50.209Z,7.31
2022-12-25T08:49:17.959Z,7.36
2022-12-25T08:51:46.104Z,7.39
2022-12-25T08:54:13.841Z,7.44
2022-12-25T08:56:42.987Z,7.49
2022-12-25T08:59:11.734Z,7.53
2022-12-25T09:01:39.621Z,7.57
2022-12-25T09:04:07.435Z,7.64
2022-12-25T09:06:35.333Z,7.72
2022-12-25T09:09:03.102Z,7.77
2022-12-25T09:11:30.906Z,7.86
2022-12-25T09:14:01.212Z,7.95
2022-12-25T09:16:30.205Z,8.04
2022-12-25T09:18:59.178Z,8.10
2022-12-25T09:21:26.970Z,8.17
2022-12-25T09:23:56.741Z,8.22
2022-12-25T09:26:24.497Z,8.28
2022-12-25T09:28:52.811Z,8.32
2022-12-25T09:31:34.594Z,8.37
2022-12-25T09:34:03.432Z,8.44
2022-12-25T09:36:33.333Z,8.48
2022-12-25T09:39:01.638Z,8.57
2022-12-25T09:41:34.603Z,8.60
2022-12-25T09:44:07.055Z,8.64
2022-12-25T09:46:41.840Z,8.67
2022-12-25T09:49:19.543Z,8.73
2022-12-25T09:51:52.522Z,8.75
2022-12-25T09:54:24.610Z,8.80
2022-12-25T09:56:54.437Z,8.83
2022-12-25T09:59:44.822Z,8.89
2022-12-25T10:02:51.794Z,8.98
2022-12-25T10:05:34.599Z,9.04
2022-12-25T10:08:11.256Z,9.11
2022-12-25T10:10:50.647Z,9.19
2022-12-25T10:13:34.706Z,9.28
2022-12-25T10:16:16.320Z,9.36
2022-12-25T10:19:26.087Z,9.42
2022-12-25T10:21:58.831Z,9.49
2022-12-25T10:24:34.983Z,9.51
2022-12-25T10:27:08.200Z,9.53
2022-12-25T10:29:38.465Z,9.60
2022-12-25T10:32:06.440Z,9.68
2022-12-25T10:34:34.770Z,9.70
2022-12-25T10:37:04.076Z,9.78
2022-12-25T10:39:31.930Z,9.85
2022-12-25T10:42:22.932Z,9.88
2022-12-25T10:44:59.531Z,9.90
2022-12-25T10:47:30.692Z,9.95
2022-12-25T10:50:00.068Z,9.99
2022-12-25T10:52:30.229Z,10.04
2022-12-25T10:54:58.225Z,10.07
2022-12-25T10:57:27.993Z,10.12
2022-12-25T10:59:57.594Z,10.18
2022-12-25T11:02:28.498Z,10.22
2022-12-25T11:05:03.538Z,10.30
2022-12-25T11:07:34.028Z,10.34
2022-12-25T11:10:05.958Z,10.41
2022-12-25T11:12:37.180Z,10.50
2022-12-25T11:15:28.064Z,10.60
2022-12-25T11:17:55.828Z,10.68
2022-12-25T11:20:24.025Z,10.79
2022-12-25T11:22:53.432Z,10.89
2022-12-25T11:25:24.747Z,10.95
2022-12-25T11:27:58.799Z,11.05
2022-12-25T11:30:26.714Z,11.12
2022-12-25T11:32:56.463Z,11.20
2022-12-25T11:35:31.586Z,11.23
2022-12-25T11:38:01.021Z,11.27
2022-12-25T11:40:33.619Z,11.30
2022-12-25T11:43:23.536Z,11.34
2022-12-25T11:45:56.788Z,11.38
2022-12-25T11:48:29.267Z,11.42
2022-12-25T11:50:59.639Z,11.44
2022-12-25T11:53:34.876Z,11.48
2022-12-25T11:56:09.025Z,11.53
2022-12-25T11:58:41.750Z,11.58
2022-12-25T12:01:19.710Z,11.66
2022-12-25T12:03:53.733Z,11.73
2022-12-25T12:06:29.305Z,11.81
2022-12-25T12:09:12.281Z,11.90
2022-12-25T12:11:44.785Z,11.98
2022-12-25T12:14:32.068Z,12.07
2022-12-25T12:17:00.973Z,12.14
2022-12-25T12:19:34.720Z,12.11
2022-12-25T12:22:05.119Z,12.13
2022-12-25T12:24:38.676Z,12.07
2022-12-25T12:27:16.572Z,12.04
2022-12-25T12:29:50.388Z,12.02
2022-12-25T12:32:33.218Z,12.00
2022-12-25T12:35:18.646Z,11.94
2022-12-25T12:37:56.579Z,11.91
2022-12-25T12:40:33.040Z,11.88
2022-12-25T12:43:03.851Z,11.82
2022-12-25T12:45:38.582Z,11.78
2022-12-25T12:48:39.844Z,11.77
2022-12-25T12:51:11.929Z,11.73
2022-12-25T12:53:42.098Z,11.73
2022-12-25T12:56:14.250Z,11.73
2022-12-25T12:58:48.444Z,11.82
2022-12-25T13:01:55.334Z,11.88
2022-12-25T13:04:41.667Z,11.92
2022-12-25T13:07:19.616Z,11.93
2022-12-25T13:10:02.558Z,11.94
2022-12-25T13:12:34.348Z,11.90
2022-12-25T13:15:04.445Z,11.88
2022-12-25T13:17:33.521Z,11.90
2022-12-25T13:20:02.286Z,11.89
2022-12-25T13:22:32.929Z,11.84
2022-12-25T13:25:05.015Z,11.84
2022-12-25T13:27:35.282Z,11.82
2022-12-25T13:30:13.417Z,11.77
2022-12-25T13:32:42.736Z,11.74
2022-12-25T13:35:15.158Z,11.73
2022-12-25T13:37:52.568Z,11.71
2022-12-25T13:40:33.497Z,11.70
2022-12-25T13:43:06.908Z,11.68
2022-12-25T13:45:36.110Z,11.68
2022-12-25T13:48:20.686Z,11.71
2022-12-25T13:50:58.905Z,11.71
2022-12-25T13:53:30.158Z,11.71
2022-12-25T13:55:59.995Z,11.70
2022-12-25T13:58:32.090Z,11.70
2022-12-25T14:01:03.241Z,11.69
2022-12-25T14:03:41.021Z,11.67
2022-12-25T14:06:19.861Z,11.66
2022-12-25T14:08:49.239Z,11.63
2022-12-25T14:11:22.208Z,11.63
2022-12-25T14:13:55.208Z,11.62
2022-12-25T14:16:29.179Z,11.59
2022-12-25T14:19:20.032Z,11.58
2022-12-25T14:21:49.377Z,11.56
2022-12-25T14:24:19.053Z,11.55
2022-12-25T14:26:46.890Z,11.53
2022-12-25T14:29:22.479Z,11.51
2022-12-25T14:31:55.508Z,11.47
2022-12-25T14:34:25.766Z,11.43
2022-12-25T14:36:54.805Z,11.38
2022-12-25T14:39:34.764Z,11.33
2022-12-25T14:42:13.645Z,11.30
2022-12-25T14:44:49.783Z,11.25
2022-12-25T14:47:51.931Z,11.15
2022-12-25T14:50:28.507Z,11.09
2022-12-25T14:52:56.927Z,11.01
2022-12-25T14:55:27.045Z,10.94
2022-12-25T14:57:58.523Z,10.84
2022-12-25T15:00:32.673Z,10.75
2022-12-25T15:03:30.259Z,10.60
2022-12-25T15:06:01.206Z,10.39
2022-12-25T15:08:30.495Z,10.29
2022-12-25T15:11:01.568Z,10.14
2022-12-25T15:13:30.867Z,10.03
2022-12-25T15:16:04.568Z,9.88
2022-12-25T15:18:37.064Z,9.76
2022-12-25T15:21:04.984Z,9.65
2022-12-25T15:23:32.760Z,9.40
2022-12-25T15:26:00.492Z,9.36
2022-12-25T15:28:28.279Z,9.27
2022-12-25T15:31:03.611Z,9.12
2022-12-25T15:33:31.429Z,9.06
2022-12-25T15:35:59.187Z,8.84
2022-12-25T15:38:26.936Z,8.71
2022-12-25T15:40:54.687Z,8.65
2022-12-25T15:43:40.248Z,8.58
2022-12-25T15:46:11.277Z,8.53
2022-12-25T15:48:39.031Z,8.42
2022-12-25T15:51:06.867Z,8.24
2022-12-25T15:53:34.638Z,8.03
2022-12-25T15:56:02.421Z,7.97
2022-12-25T15:58:30.176Z,7.91
2022-12-25T16:00:57.943Z,7.88
2022-12-25T16:03:27.106Z,7.76
2022-12-25T16:05:54.906Z,7.78
2022-12-25T16:08:22.899Z,7.69
2022-12-25T16:10:51.039Z,7.61
2022-12-25T16:13:18.815Z,7.61
2022-12-25T16:15:46.649Z,7.50
2022-12-25T16:18:14.550Z,7.51
2022-12-25T16:20:43.869Z,7.52
2022-12-25T16:23:11.725Z,7.48
2022-12-25T16:25:39.499Z,7.42
2022-12-25T16:28:10.233Z,7.42
2022-12-25T16:30:38.867Z,7.41
2022-12-25T16:33:07.362Z,7.41
2022-12-25T16:35:35.325Z,7.37
2022-12-25T16:38:04.596Z,7.25
2022-12-25T16:40:32.973Z,7.21
2022-12-25T16:43:01.170Z,7.12
2022-12-25T16:45:28.984Z,7.12
2022-12-25T16:47:57.241Z,7.10
2022-12-25T16:50:25.090Z,7.04
2022-12-25T16:52:52.824Z,6.97
2022-12-25T16:55:27.744Z,6.96
2022-12-25T16:57:58.599Z,6.90
2022-12-25T17:00:26.823Z,6.82
2022-12-25T17:02:55.883Z,6.75
2022-12-25T17:05:24.449Z,6.68
2022-12-25T17:07:53.273Z,6.54
2022-12-25T17:10:22.620Z,6.49
2022-12-25T17:12:50.548Z,6.43
2022-12-25T17:15:18.553Z,6.42
2022-12-25T17:18:11.732Z,6.22
2022-12-25T17:20:39.499Z,6.20
2022-12-25T17:23:07.418Z,6.26
2022-12-25T17:25:37.775Z,6.08
2022-12-25T17:28:06.610Z,6.12
2022-12-25T17:30:38.231Z,6.17
2022-12-25T17:33:07.117Z,6.11
2022-12-25T17:35:38.038Z,6.15
2022-12-25T17:38:06.842Z,6.12
2022-12-25T17:40:39.939Z,6.22
2022-12-25T17:43:07.738Z,6.22
2022-12-25T17:45:37.395Z,6.30
2022-12-25T17:48:05.428Z,6.32
2022-12-25T17:50:39.196Z,6.42
2022-12-25T17:53:10.056Z,6.44
2022-12-25T17:55:41.184Z,6.51
2022-12-25T17:58:10.121Z,6.52
2022-12-25T18:00:38.484Z,6.53
2022-12-25T18:03:11.569Z,6.57
2022-12-25T18:05:42.600Z,6.61
2022-12-25T18:08:10.305Z,6.61
2022-12-25T18:10:40.388Z,6.55
2022-12-25T18:13:08.720Z,6.54
2022-12-25T18:15:38.140Z,6.50
2022-12-25T18:18:06.402Z,6.52
2022-12-25T18:20:39.816Z,6.52
2022-12-25T18:23:08.214Z,6.39
2022-12-25T18:25:40.216Z,6.46
2022-12-25T18:28:09.570Z,6.43
2022-12-25T18:30:40.147Z,6.42
2022-12-25T18:33:08.364Z,6.48
2022-12-25T18:35:42.564Z,6.50
2022-12-25T18:38:15.723Z,6.42
2022-12-25T18:40:44.115Z,6.39
2022-12-25T18:43:13.909Z,6.37
2022-12-25T18:45:43.473Z,6.39
2022-12-25T18:48:13.361Z,6.38
2022-12-25T18:50:41.515Z,6.36
2022-12-25T18:53:09.337Z,6.29
2022-12-25T18:55:37.140Z,6.28
2022-12-25T18:58:04.853Z,6.33
2022-12-25T19:00:34.021Z,6.38
2022-12-25T19:03:02.103Z,6.44
2022-12-25T19:05:30.006Z,6.43
2022-12-25T19:07:57.777Z,6.47
2022-12-25T19:10:26.751Z,6.44
2022-12-25T19:12:54.483Z,6.45
2022-12-25T19:15:22.200Z,6.43
2022-12-25T19:17:52.436Z,6.41
2022-12-25T19:20:20.179Z,6.45
2022-12-25T19:22:47.962Z,6.47
2022-12-25T19:25:15.761Z,6.46
2022-12-25T19:27:43.539Z,6.43
2022-12-25T19:30:12.728Z,6.34
2022-12-25T19:32:40.518Z,6.30
2022-12-25T19:35:10.096Z,6.32
2022-12-25T19:37:37.851Z,6.34
2022-12-25T19:40:06.938Z,6.36
2022-12-25T19:42:34.774Z,6.34
2022-12-25T19:45:03.080Z,6.41
2022-12-25T19:47:30.805Z,6.44
2022-12-25T19:50:02.688Z,6.49
2022-12-25T19:52:32.655Z,6.51
2022-12-25T19:55:02.552Z,6.53
2022-12-25T19:57:31.401Z,6.54
2022-12-25T19:59:59.157Z,6.57
2022-12-25T20:02:27.064Z,6.62
2022-12-25T20:04:54.899Z,6.68
2022-12-25T20:07:22.617Z,6.75
2022-12-25T20:09:51.753Z,6.79
2022-12-25T20:12:19.534Z,6.82
2022-12-25T20:14:48.048Z,6.86
2022-12-25T20:17:16.370Z,6.93
2022-12-25T20:19:44.175Z,6.99
2022-12-25T20:22:11.960Z,7.04
2022-12-25T20:24:39.716Z,7.05
2022-12-25T20:27:08.800Z,7.07
2022-12-25T20:29:36.556Z,7.12
2022-12-25T20:32:04.907Z,7.15
2022-12-25T20:34:32.726Z,7.15
2022-12-25T20:37:00.494Z,7.13
2022-12-25T20:39:28.380Z,7.13
2022-12-25T20:41:57.211Z,7.08
2022-12-25T20:44:26.370Z,7.09
2022-12-25T20:46:54.866Z,6.98
2022-12-25T20:49:22.670Z,6.92
2022-12-25T20:51:53.527Z,6.84
2022-12-25T20:54:21.236Z,6.84
2022-12-25T20:56:49.917Z,6.85
2022-12-25T20:59:17.613Z,6.82
2022-12-25T21:01:47.667Z,6.83
2022-12-25T21:04:16.674Z,6.82
2022-12-25T21:06:44.636Z,6.80
2022-12-25T21:09:12.375Z,6.75
2022-12-25T21:11:40.669Z,6.75
2022-12-25T21:14:08.989Z,6.66
2022-12-25T21:16:39.962Z,6.59
2022-12-25T21:19:09.138Z,6.55
2022-12-25T21:21:39.108Z,6.50
2022-12-25T21:24:08.260Z,6.49
2022-12-25T21:26:36.011Z,6.46
2022-12-25T21:29:04.472Z,6.41
2022-12-25T21:31:53.170Z,6.41
2022-12-25T21:34:21.500Z,6.34
2022-12-25T21:36:49.647Z,6.30
2022-12-25T21:39:17.474Z,6.27
2022-12-25T21:41:45.242Z,6.25
2022-12-25T21:44:14.084Z,6.26
2022-12-25T21:46:41.955Z,6.24
2022-12-25T21:49:10.227Z,6.24
2022-12-25T21:51:57.150Z,6.21
2022-12-25T21:54:24.894Z,6.20
2022-12-25T21:56:52.675Z,6.22
2022-12-25T21:59:28.851Z,6.19
2022-12-25T22:01:56.710Z,6.13
2022-12-25T22:04:24.605Z,6.03
2022-12-25T22:07:11.543Z,5.97
2022-12-25T22:09:39.289Z,5.95
2022-12-25T22:12:31.883Z,5.87
2022-12-25T22:15:06.041Z,5.75
2022-12-25T22:17:52.659Z,5.74
2022-12-25T22:20:23.789Z,5.76
2022-12-25T22:22:53.079Z,5.72
2022-12-25T22:25:21.623Z,5.72
2022-12-25T22:27:50.554Z,5.66
2022-12-25T22:30:20.731Z,5.70
2022-12-25T22:32:48.707Z,5.72
2022-12-25T22:35:17.826Z,5.75
2022-12-25T22:37:46.278Z,5.74
2022-12-25T22:40:17.332Z,5.77
2022-12-25T22:42:45.156Z,5.77
2022-12-25T22:45:13.345Z,5.83
2022-12-25T22:47:41.537Z,5.83
2022-12-25T22:50:10.539Z,5.82
2022-12-25T22:52:47.070Z,5.86
2022-12-25T22:55:20.027Z,5.91
2022-12-25T22:57:48.900Z,5.93
2022-12-25T23:00:16.815Z,5.92
2022-12-25T23:02:44.740Z,5.91
2022-12-25T23:05:12.536Z,5.83
2022-12-25T23:07:40.443Z,5.79
2022-12-25T23:10:09.272Z,5.71
2022-12-25T23:12:55.759Z,5.67
2022-12-25T23:15:23.614Z,5.62
2022-12-25T23:18:13.002Z,5.65
2022-12-25T23:21:09.591Z,5.60
2022-12-25T23:23:55.195Z,5.60
2022-12-25T23:26:22.902Z,5.55
2022-12-25T23:29:09.387Z,5.51
2022-12-25T23:31:40.479Z,5.48
2022-12-25T23:34:09.437Z,5.31
2022-12-25T23:36:37.627Z,5.33
2022-12-25T23:39:10.018Z,5.37
2022-12-25T23:41:39.018Z,5.38
2022-12-25T23:44:08.656Z,5.33
2022-12-25T23:46:36.914Z,5.40
2022-12-25T23:49:05.089Z,5.44
2022-12-25T23:51:33.355Z,5.39
2022-12-25T23:54:01.093Z,5.40
2022-12-25T23:56:28.938Z,5.41
2022-12-25T23:58:56.703Z,5.37
